Arethusa — 9HJR9 — position and weather

sailwx.info

Track history (hours):
 
Tides and Currents Weather Stations Pressure Air Temp Water Temp Dewpoint Dewpoint Depression Visibility Wind Speed Wind Dir Waves Ship Positions

Arethusa

Last reported at 2015-Jul-06 17:32 UTC. Time now 2015-Jul-07 02:26 UTC.
Position N 43°06' E 009°17'.

Length 60 m; draft 3 m.

Type: Passenger vessel. MMSI: 249069000.

Date/timePositionNaut miles runAvg speedWind from/ knotsBaromVisibWave heightAir tempDewpointWater temp
2015-Jul-06 17:32N 43°06' E 009°17'1111.2
2015-Jul-06 16:32N 43°10' E 009°03'2411.4
2015-Jul-06 14:26N 43°19' E 008°32'1011.5
2015-Jul-06 13:33N 43°22' E 008°19'1211.5
2015-Jul-06 12:33N 43°27' E 008°04'1111.2
2015-Jul-06 11:33N 43°30' E 007°50'1111.0
2015-Jul-06 10:33N 43°34' E 007°35'1111.1
2015-Jul-06 09:33N 43°38' E 007°21'4 4.0
2015-Jul-06 08:28N 43°42' E 007°17'0 0.0
2015-Jul-06 07:22N 43°42' E 007°17'0 0.0
2015-Jul-05 22:16N 43°42' E 007°17'0 0.0
2015-Jul-05 21:04N 43°42' E 007°17'0 0.0
2015-Jul-05 20:22N 43°42' E 007°17'0 0.0
2015-Jul-05 19:16N 43°42' E 007°17'0 0.0
2015-Jul-05 17:22N 43°42' E 007°17'0 0.0
2015-Jul-05 16:30N 43°42' E 007°17'0 0.0
2015-Jul-05 15:33N 43°42' E 007°17'0 0.0
2015-Jul-05 14:33N 43°42' E 007°17'0 0.0
2015-Jul-05 13:33N 43°42' E 007°17'0 0.0
2015-Jul-05 12:33N 43°42' E 007°17'0 0.0
2015-Jul-05 11:33N 43°42' E 007°17'0 0.0
2015-Jul-05 10:33N 43°42' E 007°17'0 0.0
2015-Jul-05 09:33N 43°42' E 007°17'0 0.0
2015-Jul-05 08:32N 43°42' E 007°17'0 0.0
2015-Jul-05 07:33N 43°42' E 007°17'0 0.0
2015-Jul-05 06:33N 43°42' E 007°17'0 0.1
2015-Jul-05 05:33N 43°42' E 007°17'37 9.0
2015-Jul-05 01:28N 43°50' E 008°07'1010.5
2015-Jul-05 00:33N 43°54' E 008°19'1110.7
2015-Jul-04 23:33N 43°59' E 008°32'2110.5
2015-Jul-04 21:32N 44°09' E 008°58'1010.2
2015-Jul-04 20:33N 44°13' E 009°11'6 2.8
2015-Jul-04 18:33N 44°18' E 009°16'0 0.3
2015-Jul-04 17:30N 44°18' E 009°16'2 0.1
2015-Jul-04 01:28N 44°20' E 009°14'7 1.2
2015-Jul-03 19:15N 44°15' E 009°21'710.4
2015-Jul-03 18:33N 44°10' E 009°29'1010.2
2015-Jul-03 17:33N 44°03' E 009°39'9 9.5
2015-Jul-03 16:34N 44°00' E 009°52'3 3.1
2015-Jul-03 15:33N 44°03' E 009°51'0 0.0
2015-Jul-03 14:33N 44°03' E 009°51'0 0.0
2015-Jul-03 13:33N 44°03' E 009°51'0 0.0
2015-Jul-03 12:33N 44°03' E 009°51'0 0.0
2015-Jul-03 11:33N 44°03' E 009°51'0 0.0
2015-Jul-03 10:33N 44°03' E 009°51'0 0.0
2015-Jul-03 09:33N 44°03' E 009°51'0 0.0
2015-Jul-03 08:33N 44°03' E 009°51'0 0.0
2015-Jul-03 07:33N 44°03' E 009°51'0 0.0
2015-Jul-03 06:33N 44°03' E 009°51'0 0.0
2015-Jul-03 05:33N 44°03' E 009°51'0 0.0
2015-Jul-03 04:33N 44°03' E 009°51'0 0.0
2015-Jul-03 03:33N 44°03' E 009°51'0 0.0
2015-Jul-03 02:33N 44°03' E 009°51'0 0.0
2015-Jul-03 01:33N 44°03' E 009°51'0 0.0
2015-Jul-03 00:33N 44°03' E 009°51'0 0.0
2015-Jul-02 23:33N 44°03' E 009°51'0 0.0
2015-Jul-02 22:33N 44°03' E 009°51'0 0.0
2015-Jul-02 21:33N 44°03' E 009°51'0 0.0
2015-Jul-02 20:33N 44°03' E 009°51'0 0.0
2015-Jul-02 19:33N 44°03' E 009°51'0 0.0
2015-Jul-02 18:33N 44°03' E 009°51'0 0.0
2015-Jul-02 17:33N 44°03' E 009°51'0 0.0
2015-Jul-02 16:33N 44°03' E 009°51'0 0.0
2015-Jul-02 15:33N 44°03' E 009°51'0 0.0
2015-Jul-02 14:30N 44°03' E 009°51'0 0.0
2015-Jul-02 13:33N 44°03' E 009°51'0 0.0
2015-Jul-02 12:33N 44°03' E 009°51'9 8.6
2015-Jul-02 11:33N 44°02' E 010°03'0 0.4
2015-Jul-02 10:33N 44°02' E 010°02'0 0.0
2015-Jul-02 09:33N 44°02' E 010°02'0 0.0
2015-Jul-02 08:33N 44°02' E 010°02'0 0.0
2015-Jul-02 07:33N 44°02' E 010°02'0 0.0
2015-Jul-02 06:33N 44°02' E 010°02'1 0.6
2015-Jul-02 05:33N 44°01' E 010°03'9 9.4
2015-Jul-02 04:33N 43°53' E 009°59'1010.1
2015-Jul-02 03:33N 43°43' E 009°54'1010.0
2015-Jul-02 02:34N 43°34' E 009°49'10 9.9
2015-Jul-02 01:33N 43°24' E 009°45'37 1.2
2015-Jun-30 19:25N 42°49' E 010°01'1210.4
2015-Jun-30 18:17N 42°52' E 010°16'4 0.5
2015-Jun-30 10:18N 42°49' E 010°20'0 0.0
2015-Jun-30 06:30N 42°49' E 010°20'1 0.7
2015-Jun-30 05:31N 42°48' E 010°20'0 0.0
2015-Jun-30 04:33N 42°48' E 010°20'0 0.0
2015-Jun-30 03:33N 42°48' E 010°20'0 0.0
2015-Jun-30 02:33N 42°48' E 010°20'0 0.0
2015-Jun-30 01:30N 42°48' E 010°20'0 0.0
2015-Jun-29 22:03N 42°48' E 010°20'0 0.0
2015-Jun-29 21:19N 42°48' E 010°20'14 7.3
2015-Jun-29 19:27N 43°02' E 010°18'910.2
2015-Jun-29 18:33N 43°11' E 010°16'1010.5
2015-Jun-29 17:33N 43°21' E 010°14'10 9.9
2015-Jun-29 16:33N 43°31' E 010°15'3 2.9
2015-Jun-29 15:31N 43°33' E 010°18'0 0.0
2015-Jun-29 14:28N 43°33' E 010°18'0 0.0
2015-Jun-29 13:31N 43°33' E 010°18'0 0.0
2015-Jun-29 12:33N 43°33' E 010°18'0 0.0
2015-Jun-29 11:33N 43°33' E 010°18'0 0.0
2015-Jun-29 10:33N 43°33' E 010°18'0 0.0
2015-Jun-29 09:34N 43°33' E 010°18'0 0.0
2015-Jun-29 08:34N 43°33' E 010°18'0 0.0
2015-Jun-29 07:34N 43°33' E 010°18'0 0.0
2015-Jun-29 06:33N 43°33' E 010°18'0 0.0
2015-Jun-29 05:33N 43°33' E 010°18'0 0.0
2015-Jun-29 04:34N 43°33' E 010°18'0 0.0
2015-Jun-29 03:34N 43°33' E 010°18'0 0.0
2015-Jun-29 02:34N 43°33' E 010°18'0 0.0
2015-Jun-29 01:34N 43°33' E 010°18'0 0.0
2015-Jun-29 00:34N 43°33' E 010°18'0 0.0
2015-Jun-28 23:33N 43°33' E 010°18'0 0.3
2015-Jun-28 22:33N 43°33' E 010°18'6 5.8
2015-Jun-28 21:34N 43°28' E 010°14'1010.3
2015-Jun-28 20:33N 43°17' E 010°16'2110.4
2015-Jun-28 18:33N 42°57' E 010°19'8 0.6
2015-Jun-28 05:21N 42°48' E 010°21'0 0.0
2015-Jun-28 02:20N 42°48' E 010°21'0 0.0
2015-Jun-28 00:13N 42°48' E 010°21'0 0.0
2015-Jun-27 23:05N 42°48' E 010°21'8 2.3
2015-Jun-27 19:33N 42°51' E 010°11'15 9.8
2015-Jun-27 18:03N 42°47' E 009°51'5 9.9
2015-Jun-27 17:31N 42°45' E 009°45'25 1.7
2015-Jun-27 02:30N 43°10' E 009°41'1010.6
2015-Jun-27 01:33N 43°20' E 009°44'1110.6
2015-Jun-27 00:33N 43°30' E 009°47'1010.4
2015-Jun-26 23:33N 43°40' E 009°52'1010.3
2015-Jun-26 22:33N 43°49' E 009°56'1010.3
2015-Jun-26 21:33N 43°59' E 010°01'3 2.9
2015-Jun-26 20:30N 44°02' E 010°02'0 0.0
2015-Jun-26 19:24N 44°02' E 010°02'0 0.0
2015-Jun-26 18:33N 44°02' E 010°02'  
Track history (hours):
 
Tides and Currents Weather Stations Pressure Air Temp Water Temp Dewpoint Dewpoint Depression Visibility Wind Speed Wind Dir Waves Ship Positions

Arethusa

Last reported at 2015-Jul-06 17:32 UTC. Time now 2015-Jul-07 02:26 UTC.
Position N 43°06' E 009°17'.

Length 60 m; draft 3 m.

Type: Passenger vessel. MMSI: 249069000.

Date/timePositionNaut miles runAvg speedWind from/ knotsBaromVisibWave heightAir tempDewpointWater temp
2015-Jul-06 17:32N 43°06' E 009°17'1111.2
2015-Jul-06 16:32N 43°10' E 009°03'2411.4
2015-Jul-06 14:26N 43°19' E 008°32'1011.5
2015-Jul-06 13:33N 43°22' E 008°19'1211.5
2015-Jul-06 12:33N 43°27' E 008°04'1111.2
2015-Jul-06 11:33N 43°30' E 007°50'1111.0
2015-Jul-06 10:33N 43°34' E 007°35'1111.1
2015-Jul-06 09:33N 43°38' E 007°21'4 4.0
2015-Jul-06 08:28N 43°42' E 007°17'0 0.0
2015-Jul-06 07:22N 43°42' E 007°17'0 0.0
2015-Jul-05 22:16N 43°42' E 007°17'0 0.0
2015-Jul-05 21:04N 43°42' E 007°17'0 0.0
2015-Jul-05 20:22N 43°42' E 007°17'0 0.0
2015-Jul-05 19:16N 43°42' E 007°17'0 0.0
2015-Jul-05 17:22N 43°42' E 007°17'0 0.0
2015-Jul-05 16:30N 43°42' E 007°17'0 0.0
2015-Jul-05 15:33N 43°42' E 007°17'0 0.0
2015-Jul-05 14:33N 43°42' E 007°17'0 0.0
2015-Jul-05 13:33N 43°42' E 007°17'0 0.0
2015-Jul-05 12:33N 43°42' E 007°17'0 0.0
2015-Jul-05 11:33N 43°42' E 007°17'0 0.0
2015-Jul-05 10:33N 43°42' E 007°17'0 0.0
2015-Jul-05 09:33N 43°42' E 007°17'0 0.0
2015-Jul-05 08:32N 43°42' E 007°17'0 0.0
2015-Jul-05 07:33N 43°42' E 007°17'0 0.0
2015-Jul-05 06:33N 43°42' E 007°17'0 0.1
2015-Jul-05 05:33N 43°42' E 007°17'37 9.0
2015-Jul-05 01:28N 43°50' E 008°07'1010.5
2015-Jul-05 00:33N 43°54' E 008°19'1110.7
2015-Jul-04 23:33N 43°59' E 008°32'2110.5
2015-Jul-04 21:32N 44°09' E 008°58'1010.2
2015-Jul-04 20:33N 44°13' E 009°11'6 2.8
2015-Jul-04 18:33N 44°18' E 009°16'0 0.3
2015-Jul-04 17:30N 44°18' E 009°16'2 0.1
2015-Jul-04 01:28N 44°20' E 009°14'7 1.2
2015-Jul-03 19:15N 44°15' E 009°21'710.4
2015-Jul-03 18:33N 44°10' E 009°29'1010.2
2015-Jul-03 17:33N 44°03' E 009°39'9 9.5
2015-Jul-03 16:34N 44°00' E 009°52'3 3.1
2015-Jul-03 15:33N 44°03' E 009°51'0 0.0
2015-Jul-03 14:33N 44°03' E 009°51'0 0.0
2015-Jul-03 13:33N 44°03' E 009°51'0 0.0
2015-Jul-03 12:33N 44°03' E 009°51'0 0.0
2015-Jul-03 11:33N 44°03' E 009°51'0 0.0
2015-Jul-03 10:33N 44°03' E 009°51'0 0.0
2015-Jul-03 09:33N 44°03' E 009°51'0 0.0
2015-Jul-03 08:33N 44°03' E 009°51'0 0.0
2015-Jul-03 07:33N 44°03' E 009°51'0 0.0
2015-Jul-03 06:33N 44°03' E 009°51'0 0.0
2015-Jul-03 05:33N 44°03' E 009°51'0 0.0
2015-Jul-03 04:33N 44°03' E 009°51'0 0.0
2015-Jul-03 03:33N 44°03' E 009°51'0 0.0
2015-Jul-03 02:33N 44°03' E 009°51'0 0.0
2015-Jul-03 01:33N 44°03' E 009°51'0 0.0
2015-Jul-03 00:33N 44°03' E 009°51'0 0.0
2015-Jul-02 23:33N 44°03' E 009°51'0 0.0
2015-Jul-02 22:33N 44°03' E 009°51'0 0.0
2015-Jul-02 21:33N 44°03' E 009°51'0 0.0
2015-Jul-02 20:33N 44°03' E 009°51'0 0.0
2015-Jul-02 19:33N 44°03' E 009°51'0 0.0
2015-Jul-02 18:33N 44°03' E 009°51'0 0.0
2015-Jul-02 17:33N 44°03' E 009°51'0 0.0
2015-Jul-02 16:33N 44°03' E 009°51'0 0.0
2015-Jul-02 15:33N 44°03' E 009°51'0 0.0
2015-Jul-02 14:30N 44°03' E 009°51'0 0.0
2015-Jul-02 13:33N 44°03' E 009°51'0 0.0
2015-Jul-02 12:33N 44°03' E 009°51'9 8.6
2015-Jul-02 11:33N 44°02' E 010°03'0 0.4
2015-Jul-02 10:33N 44°02' E 010°02'0 0.0
2015-Jul-02 09:33N 44°02' E 010°02'0 0.0
2015-Jul-02 08:33N 44°02' E 010°02'0 0.0
2015-Jul-02 07:33N 44°02' E 010°02'0 0.0
2015-Jul-02 06:33N 44°02' E 010°02'1 0.6
2015-Jul-02 05:33N 44°01' E 010°03'9 9.4
2015-Jul-02 04:33N 43°53' E 009°59'1010.1
2015-Jul-02 03:33N 43°43' E 009°54'1010.0
2015-Jul-02 02:34N 43°34' E 009°49'10 9.9
2015-Jul-02 01:33N 43°24' E 009°45'37 1.2
2015-Jun-30 19:25N 42°49' E 010°01'1210.4
2015-Jun-30 18:17N 42°52' E 010°16'4 0.5
2015-Jun-30 10:18N 42°49' E 010°20'0 0.0
2015-Jun-30 06:30N 42°49' E 010°20'1 0.7
2015-Jun-30 05:31N 42°48' E 010°20'0 0.0
2015-Jun-30 04:33N 42°48' E 010°20'0 0.0
2015-Jun-30 03:33N 42°48' E 010°20'0 0.0
2015-Jun-30 02:33N 42°48' E 010°20'0 0.0
2015-Jun-30 01:30N 42°48' E 010°20'0 0.0
2015-Jun-29 22:03N 42°48' E 010°20'0 0.0
2015-Jun-29 21:19N 42°48' E 010°20'14 7.3
2015-Jun-29 19:27N 43°02' E 010°18'910.2
2015-Jun-29 18:33N 43°11' E 010°16'1010.5
2015-Jun-29 17:33N 43°21' E 010°14'10 9.9
2015-Jun-29 16:33N 43°31' E 010°15'3 2.9
2015-Jun-29 15:31N 43°33' E 010°18'0 0.0
2015-Jun-29 14:28N 43°33' E 010°18'0 0.0
2015-Jun-29 13:31N 43°33' E 010°18'0 0.0
2015-Jun-29 12:33N 43°33' E 010°18'0 0.0
2015-Jun-29 11:33N 43°33' E 010°18'0 0.0
2015-Jun-29 10:33N 43°33' E 010°18'0 0.0
2015-Jun-29 09:34N 43°33' E 010°18'0 0.0
2015-Jun-29 08:34N 43°33' E 010°18'0 0.0
2015-Jun-29 07:34N 43°33' E 010°18'0 0.0
2015-Jun-29 06:33N 43°33' E 010°18'0 0.0
2015-Jun-29 05:33N 43°33' E 010°18'0 0.0
2015-Jun-29 04:34N 43°33' E 010°18'0 0.0
2015-Jun-29 03:34N 43°33' E 010°18'0 0.0
2015-Jun-29 02:34N 43°33' E 010°18'0 0.0
2015-Jun-29 01:34N 43°33' E 010°18'0 0.0
2015-Jun-29 00:34N 43°33' E 010°18'0 0.0
2015-Jun-28 23:33N 43°33' E 010°18'0 0.3
2015-Jun-28 22:33N 43°33' E 010°18'6 5.8
2015-Jun-28 21:34N 43°28' E 010°14'1010.3
2015-Jun-28 20:33N 43°17' E 010°16'2110.4
2015-Jun-28 18:33N 42°57' E 010°19'8 0.6
2015-Jun-28 05:21N 42°48' E 010°21'0 0.0
2015-Jun-28 02:20N 42°48' E 010°21'0 0.0
2015-Jun-28 00:13N 42°48' E 010°21'0 0.0
2015-Jun-27 23:05N 42°48' E 010°21'8 2.3
2015-Jun-27 19:33N 42°51' E 010°11'15 9.8
2015-Jun-27 18:03N 42°47' E 009°51'5 9.9
2015-Jun-27 17:31N 42°45' E 009°45'25 1.7
2015-Jun-27 02:30N 43°10' E 009°41'1010.6
2015-Jun-27 01:33N 43°20' E 009°44'1110.6
2015-Jun-27 00:33N 43°30' E 009°47'1010.4
2015-Jun-26 23:33N 43°40' E 009°52'1010.3
2015-Jun-26 22:33N 43°49' E 009°56'1010.3
2015-Jun-26 21:33N 43°59' E 010°01'3 2.9
2015-Jun-26 20:30N 44°02' E 010°02'0 0.0
2015-Jun-26 19:24N 44°02' E 010°02'0 0.0
2015-Jun-26 18:33N 44°02' E 010°02'  

Dump ship's entire track history